Time;durP1;ratioP1;P1;durP2;ratioP2;P2;SDS_P1;SDS_P2;PMS_P1;PMS_P2;Temp;Humidity;BMP_temperature;BMP_pressure;BME280_temperature;BME280_humidity;BME280_pressure;Samples;Min_cycle;Max_cycle;Signal;HPM_P1;HPM_P2
2022/03/10 00:00:28;;;;;;;2.43;2.20;;;17.30;58.20;;;;;;5203566;28;20574;-66
2022/03/10 00:03:21;;;;;;;3.20;2.23;;;17.30;58.10;;;;;;5192828;28;20682;-66
2022/03/10 00:06:14;;;;;;;3.00;2.57;;;17.30;58.10;;;;;;5199356;28;20225;-66
2022/03/10 00:09:07;;;;;;;3.27;2.50;;;17.30;58.10;;;;;;5207067;28;20202;-66
2022/03/10 00:11:59;;;;;;;2.73;2.50;;;17.30;58.20;;;;;;5205973;28;20570;-66
2022/03/10 00:14:51;;;;;;;3.37;2.47;;;17.30;58.10;;;;;;5187360;28;20201;-66
2022/03/10 00:17:43;;;;;;;3.37;2.37;;;17.30;58.10;;;;;;5187296;28;20341;-66
2022/03/10 00:20:37;;;;;;;2.60;2.30;;;17.30;57.90;;;;;;5187552;28;20277;-66
2022/03/10 00:23:29;;;;;;;3.20;2.30;;;17.30;58.00;;;;;;5185927;28;20198;-66
2022/03/10 00:26:22;;;;;;;2.73;2.03;;;17.30;58.10;;;;;;5186355;28;20194;-66
2022/03/10 00:29:14;;;;;;;2.60;2.07;;;17.30;58.60;;;;;;5187222;28;20194;-66
2022/03/10 00:32:07;;;;;;;2.20;1.93;;;17.30;58.00;;;;;;5189557;28;20657;-66
2022/03/10 00:34:59;;;;;;;2.83;2.07;;;17.30;58.00;;;;;;5194036;28;20279;-66
2022/03/10 00:37:53;;;;;;;1.93;1.70;;;17.30;58.00;;;;;;5186088;28;20709;-66
2022/03/10 00:40:46;;;;;;;2.73;2.10;;;17.30;57.90;;;;;;5186172;28;20654;-66
2022/03/10 00:43:38;;;;;;;2.40;1.87;;;17.30;57.90;;;;;;5185806;28;20277;-66
2022/03/10 00:46:30;;;;;;;4.57;2.50;;;17.30;57.90;;;;;;5199575;28;20198;-66
2022/03/10 00:49:22;;;;;;;3.13;2.10;;;17.30;57.90;;;;;;5201065;28;20576;-66
2022/03/10 00:52:14;;;;;;;2.67;2.20;;;17.30;57.90;;;;;;5191522;28;20190;-66
2022/03/10 00:55:09;;;;;;;2.60;1.73;;;17.30;57.90;;;;;;5184918;28;20203;-66
2022/03/10 00:58:02;;;;;;;1.97;1.77;;;17.30;57.90;;;;;;5186115;28;20228;-66
2022/03/10 01:00:54;;;;;;;2.30;2.10;;;17.30;57.90;;;;;;5185893;28;20213;-66
2022/03/10 01:03:46;;;;;;;3.47;2.20;;;17.30;57.80;;;;;;5197258;28;20612;-66
2022/03/10 01:06:39;;;;;;;3.17;1.87;;;17.30;57.90;;;;;;5204385;28;20194;-66
2022/03/10 01:09:31;;;;;;;2.40;2.10;;;17.30;57.80;;;;;;5185898;28;20198;-66
2022/03/10 01:12:24;;;;;;;2.97;2.20;;;17.30;57.80;;;;;;5192718;28;20197;-66
2022/03/10 01:15:19;;;;;;;2.50;1.83;;;17.30;57.80;;;;;;5198610;28;20209;-66
2022/03/10 01:18:11;;;;;;;2.30;1.90;;;17.30;57.80;;;;;;5188293;28;20664;-66
2022/03/10 01:21:03;;;;;;;2.87;2.10;;;17.30;57.80;;;;;;5184868;28;20563;-65
2022/03/10 01:23:55;;;;;;;3.00;2.00;;;17.30;57.70;;;;;;5186278;28;20229;-66
2022/03/10 01:26:47;;;;;;;2.93;2.03;;;17.20;57.70;;;;;;5191316;28;20585;-66
2022/03/10 01:29:41;;;;;;;3.37;2.10;;;17.30;57.70;;;;;;5193552;28;20206;-66
2022/03/10 01:32:34;;;;;;;2.00;1.80;;;17.30;57.70;;;;;;5199682;28;20194;-66
2022/03/10 01:35:26;;;;;;;3.40;2.20;;;17.30;57.80;;;;;;5184645;28;20670;-66
2022/03/10 01:38:18;;;;;;;1.93;1.73;;;17.20;57.70;;;;;;5184808;28;20218;-66
2022/03/10 01:41:10;;;;;;;2.10;1.83;;;17.30;57.70;;;;;;5184412;28;20201;-66
2022/03/10 01:44:05;;;;;;;2.30;1.70;;;17.30;57.70;;;;;;5198505;28;20269;-66
2022/03/10 01:46:58;;;;;;;2.67;1.97;;;17.30;57.70;;;;;;5204273;28;20210;-66
2022/03/10 01:49:50;;;;;;;2.43;1.70;;;17.20;57.50;;;;;;5185020;28;20194;-66
2022/03/10 01:52:43;;;;;;;2.00;1.73;;;17.30;57.60;;;;;;5183845;28;20201;-66
2022/03/10 01:55:35;;;;;;;2.03;1.83;;;17.20;57.50;;;;;;5184512;28;20224;-66
2022/03/10 01:58:28;;;;;;;1.60;1.43;;;17.20;57.60;;;;;;5199751;28;20275;-66
2022/03/10 02:01:20;;;;;;;2.00;1.80;;;17.20;57.70;;;;;;5203957;28;20201;-66
2022/03/10 02:04:14;;;;;;;1.70;1.60;;;17.20;57.60;;;;;;5196196;28;20198;-66
2022/03/10 02:10:16;;;;;;;1.80;1.60;;;17.20;57.60;;;;;;5204755;28;20209;-66
2022/03/10 02:10:20;;;;;;;1.80;1.60;;;17.20;57.50;;;;;;5203649;28;20197;-66
2022/03/10 02:13:12;;;;;;;2.27;1.70;;;17.20;57.50;;;;;;5184354;28;20190;-66
2022/03/10 02:19:15;;;;;;;2.03;1.80;;;17.20;57.50;;;;;;5203469;28;20285;-66
2022/03/10 02:22:11;;;;;;;2.13;1.77;;;17.20;57.60;;;;;;5203892;28;20206;-66
2022/03/10 02:25:03;;;;;;;2.10;1.73;;;17.20;57.60;;;;;;5196407;28;20323;-66
2022/03/10 02:27:57;;;;;;;2.27;1.73;;;17.20;57.50;;;;;;5189501;28;20596;-66
2022/03/10 02:30:49;;;;;;;2.30;2.00;;;17.30;57.50;;;;;;5203742;28;20201;-66
2022/03/10 02:33:43;;;;;;;2.90;1.70;;;17.20;57.40;;;;;;5201969;28;20573;-66
2022/03/10 02:36:35;;;;;;;2.47;1.77;;;17.20;57.40;;;;;;5202099;28;20198;-66
2022/03/10 02:39:28;;;;;;;2.33;1.53;;;17.30;57.50;;;;;;5184258;28;20183;-66
2022/03/10 02:42:20;;;;;;;1.90;1.63;;;17.30;57.50;;;;;;5191529;28;20283;-66
2022/03/10 02:45:13;;;;;;;2.37;1.67;;;17.20;57.30;;;;;;5183980;28;20216;-66
2022/03/10 02:48:05;;;;;;;2.73;1.60;;;17.20;57.40;;;;;;5185333;28;20215;-66
2022/03/10 02:50:58;;;;;;;2.37;1.77;;;17.20;57.30;;;;;;5190560;28;20198;-66
2022/03/10 02:53:50;;;;;;;2.00;1.80;;;17.20;57.30;;;;;;5196663;28;20191;-66
2022/03/10 02:56:43;;;;;;;1.67;1.57;;;17.20;57.30;;;;;;5191971;28;20201;-66
2022/03/10 02:59:36;;;;;;;2.13;1.90;;;17.20;57.30;;;;;;5199048;28;20194;-66
2022/03/10 03:02:28;;;;;;;2.37;1.77;;;17.20;57.30;;;;;;5202723;28;20209;-66
2022/03/10 03:05:20;;;;;;;1.40;1.20;;;17.20;57.30;;;;;;5204307;28;20198;-66
2022/03/10 03:08:12;;;;;;;1.77;1.60;;;17.20;57.30;;;;;;5203958;28;20307;-66
2022/03/10 03:11:05;;;;;;;1.77;1.40;;;17.20;57.40;;;;;;5204441;28;20673;-66
2022/03/10 03:13:58;;;;;;;1.73;1.53;;;17.20;57.30;;;;;;5199278;28;20221;-66
2022/03/10 03:16:50;;;;;;;2.73;2.00;;;17.20;57.20;;;;;;5197618;28;20223;-66
2022/03/10 03:19:42;;;;;;;2.53;1.67;;;17.30;57.30;;;;;;5187999;28;20670;-66
2022/03/10 03:22:35;;;;;;;2.50;1.63;;;17.20;57.20;;;;;;5187222;28;20198;-66
2022/03/10 03:25:27;;;;;;;3.00;1.70;;;17.20;57.20;;;;;;5202026;28;20200;-66
2022/03/10 03:28:21;;;;;;;2.30;1.90;;;17.20;57.30;;;;;;5188556;28;20217;-66
2022/03/10 03:31:14;;;;;;;1.83;1.67;;;17.20;57.30;;;;;;5193295;28;20190;-66
2022/03/10 03:34:10;;;;;;;1.80;1.57;;;17.20;57.20;;;;;;5205217;28;20194;-66
2022/03/10 03:37:02;;;;;;;2.30;1.67;;;17.30;57.20;;;;;;5207068;28;20225;-66
2022/03/10 03:39:54;;;;;;;2.40;1.83;;;17.20;57.20;;;;;;5187046;28;20195;-67
2022/03/10 03:42:46;;;;;;;2.33;1.60;;;17.20;57.10;;;;;;5186243;28;20658;-66
2022/03/10 03:45:38;;;;;;;1.60;1.50;;;17.20;57.10;;;;;;5194895;28;20202;-66
2022/03/10 03:48:32;;;;;;;2.10;1.70;;;17.20;57.10;;;;;;5208238;28;20251;-66
2022/03/10 03:51:24;;;;;;;1.90;1.63;;;17.20;57.10;;;;;;5198514;28;20201;-66
2022/03/10 03:54:16;;;;;;;2.33;1.90;;;17.20;57.20;;;;;;5191182;28;20197;-66
2022/03/10 03:57:08;;;;;;;2.03;1.73;;;17.20;57.10;;;;;;5204939;28;20303;-66
2022/03/10 04:00:01;;;;;;;1.87;1.70;;;17.20;57.10;;;;;;5206326;28;20390;-66
2022/03/10 04:02:54;;;;;;;2.77;1.60;;;17.20;57.00;;;;;;5207465;28;20688;-66
2022/03/10 04:05:47;;;;;;;1.80;1.50;;;17.20;57.00;;;;;;5186408;28;20194;-66
2022/03/10 04:08:39;;;;;;;1.80;1.70;;;17.20;57.10;;;;;;5187409;28;20581;-66
2022/03/10 04:11:32;;;;;;;2.30;1.80;;;17.20;57.00;;;;;;5186417;28;20199;-66
2022/03/10 04:14:24;;;;;;;2.13;1.70;;;17.20;57.00;;;;;;5210165;28;20196;-66
2022/03/10 04:17:16;;;;;;;3.03;2.07;;;17.20;57.10;;;;;;5186068;28;20598;-66
2022/03/10 04:20:13;;;;;;;1.77;1.67;;;17.20;57.10;;;;;;5201267;28;20198;-66
2022/03/10 04:23:06;;;;;;;1.63;1.50;;;17.20;57.00;;;;;;5206998;28;20201;-67
2022/03/10 04:25:58;;;;;;;2.33;1.63;;;17.20;57.00;;;;;;5206386;28;20196;-66
2022/03/10 04:28:50;;;;;;;2.03;1.80;;;17.20;57.00;;;;;;5198639;28;20263;-66
2022/03/10 04:31:43;;;;;;;2.20;1.60;;;17.20;57.00;;;;;;5200388;28;20273;-66
2022/03/10 04:34:35;;;;;;;2.13;1.70;;;17.20;57.00;;;;;;5198196;28;20281;-66
2022/03/10 04:37:27;;;;;;;2.03;1.73;;;17.20;57.10;;;;;;5191450;28;20226;-66
2022/03/10 04:40:22;;;;;;;2.47;1.73;;;17.20;57.10;;;;;;5186120;28;20206;-66
2022/03/10 04:43:14;;;;;;;1.63;1.50;;;17.20;57.10;;;;;;5185629;28;20310;-66
2022/03/10 04:46:06;;;;;;;2.27;1.53;;;17.20;56.90;;;;;;5203842;28;20201;-66
2022/03/10 04:48:58;;;;;;;2.33;1.50;;;17.20;56.90;;;;;;5200198;28;20201;-66
2022/03/10 04:51:51;;;;;;;3.20;1.90;;;17.20;56.90;;;;;;5198853;28;20202;-66
2022/03/10 04:54:43;;;;;;;1.67;1.57;;;17.30;57.00;;;;;;5200545;28;20186;-66
2022/03/10 04:57:37;;;;;;;1.70;1.50;;;17.30;56.90;;;;;;5194630;28;20222;-66
2022/03/10 05:00:29;;;;;;;1.80;1.50;;;17.30;56.90;;;;;;5195957;28;20191;-66
2022/03/10 05:03:21;;;;;;;1.80;1.50;;;17.20;56.80;;;;;;5191303;28;20565;-66
2022/03/10 05:06:13;;;;;;;2.00;1.63;;;17.30;57.00;;;;;;5196345;28;20203;-67
2022/03/10 05:09:05;;;;;;;1.47;1.33;;;17.20;56.90;;;;;;5193913;28;20676;-66
2022/03/10 05:11:57;;;;;;;1.70;1.50;;;17.30;56.90;;;;;;5195221;28;20194;-66
2022/03/10 05:14:51;;;;;;;1.60;1.50;;;17.30;57.00;;;;;;5200209;28;20681;-66
2022/03/10 05:17:43;;;;;;;2.33;1.70;;;17.30;57.00;;;;;;5195017;28;20225;-67
2022/03/10 05:20:35;;;;;;;1.97;1.57;;;17.30;57.00;;;;;;5195445;28;20669;-66
2022/03/10 05:23:27;;;;;;;2.00;1.70;;;17.30;57.10;;;;;;5194723;28;20666;-66
2022/03/10 05:26:19;;;;;;;1.73;1.60;;;17.30;57.10;;;;;;5195239;28;20566;-66
2022/03/10 05:29:12;;;;;;;1.90;1.63;;;17.30;57.10;;;;;;5195938;28;20205;-66
2022/03/10 05:32:06;;;;;;;1.77;1.50;;;17.30;57.10;;;;;;5194492;28;20194;-66
2022/03/10 05:35:00;;;;;;;2.03;1.70;;;17.30;57.10;;;;;;5193816;28;20201;-66
2022/03/10 05:37:52;;;;;;;2.30;1.57;;;17.30;57.20;;;;;;5192000;28;20267;-67
2022/03/10 05:40:44;;;;;;;1.80;1.53;;;17.30;57.20;;;;;;5194564;28;20193;-66
2022/03/10 05:43:36;;;;;;;2.27;1.63;;;17.30;57.10;;;;;;5202370;28;20665;-66
2022/03/10 05:46:28;;;;;;;2.10;1.70;;;17.30;57.20;;;;;;5202429;28;20280;-66
2022/03/10 05:49:22;;;;;;;1.63;1.50;;;17.30;57.20;;;;;;5201468;28;20202;-66
2022/03/10 05:52:14;;;;;;;2.10;1.70;;;17.30;57.10;;;;;;5186715;28;20198;-66
2022/03/10 05:55:07;;;;;;;2.23;1.73;;;17.30;57.10;;;;;;5184280;28;20205;-66
2022/03/10 05:57:59;;;;;;;1.80;1.70;;;17.30;57.20;;;;;;5201147;23;20328;-65
2022/03/10 06:00:51;;;;;;;1.60;1.50;;;17.30;57.10;;;;;;5194439;28;20670;-64
2022/03/10 06:03:43;;;;;;;2.23;1.87;;;17.30;57.10;;;;;;5204781;28;20220;-64
2022/03/10 06:06:36;;;;;;;1.67;1.33;;;17.30;57.10;;;;;;5202422;28;20198;-64
2022/03/10 06:09:29;;;;;;;1.83;1.63;;;17.30;57.10;;;;;;5185475;28;20260;-64
2022/03/10 06:12:21;;;;;;;1.90;1.60;;;17.30;57.10;;;;;;5184205;28;20204;-64
2022/03/10 06:15:14;;;;;;;1.90;1.50;;;17.30;57.10;;;;;;5197157;28;20206;-64
2022/03/10 06:18:08;;;;;;;1.53;1.43;;;17.30;57.10;;;;;;5202871;28;20225;-64
2022/03/10 06:21:00;;;;;;;2.50;1.53;;;17.30;57.10;;;;;;5203737;28;20205;-64
2022/03/10 06:23:53;;;;;;;2.07;1.50;;;17.30;57.10;;;;;;5202565;28;20194;-65
2022/03/10 06:26:45;;;;;;;1.67;1.20;;;17.30;57.10;;;;;;5203158;28;20197;-64
2022/03/10 06:29:38;;;;;;;3.30;1.57;;;17.30;57.30;;;;;;5200099;28;20217;-64
2022/03/10 06:32:30;;;;;;;2.10;1.90;;;17.30;57.30;;;;;;5183960;28;20261;-65
2022/03/10 06:35:23;;;;;;;1.80;1.50;;;17.30;57.10;;;;;;5195120;28;20573;-64
2022/03/10 06:38:15;;;;;;;2.07;1.40;;;17.30;57.10;;;;;;5203743;28;20265;-65
2022/03/10 06:41:08;;;;;;;2.20;1.53;;;17.30;57.10;;;;;;5202957;28;20329;-64
2022/03/10 06:44:00;;;;;;;2.37;1.60;;;17.30;57.10;;;;;;5203684;28;20202;-64
2022/03/10 06:46:53;;;;;;;4.17;1.90;;;17.30;57.60;;;;;;5204775;28;20204;-65
2022/03/10 06:49:45;;;;;;;2.60;1.63;;;17.30;57.10;;;;;;5203426;28;20753;-65
2022/03/10 06:52:37;;;;;;;2.47;1.63;;;17.30;57.20;;;;;;5205423;28;20198;-64
2022/03/10 06:55:39;;;;;;;2.63;1.67;;;17.30;57.20;;;;;;5201049;28;20201;-64
2022/03/10 06:58:32;;;;;;;2.70;1.47;;;17.30;57.10;;;;;;5202825;28;20220;-64
2022/03/10 07:01:25;;;;;;;1.87;1.57;;;17.30;56.60;;;;;;5208086;28;20202;-65
2022/03/10 07:04:17;;;;;;;1.90;1.70;;;17.30;56.70;;;;;;5208883;28;20229;-65
2022/03/10 07:07:09;;;;;;;1.80;1.60;;;17.30;56.90;;;;;;5207966;28;20190;-65
2022/03/10 07:10:01;;;;;;;3.03;1.47;;;17.30;56.60;;;;;;5207994;28;20222;-65
2022/03/10 07:12:54;;;;;;;2.33;1.60;;;17.30;56.70;;;;;;5207570;28;20672;-67
2022/03/10 07:15:48;;;;;;;2.00;1.60;;;17.30;57.00;;;;;;5208583;28;20186;-67
2022/03/10 07:18:40;;;;;;;2.00;1.50;;;17.30;57.60;;;;;;5208207;28;20213;-64
2022/03/10 07:21:32;;;;;;;1.60;1.50;;;17.30;57.60;;;;;;5207872;28;20277;-65
2022/03/10 07:24:25;;;;;;;2.03;1.50;;;17.30;57.20;;;;;;5207894;28;20200;-65
2022/03/10 07:27:18;;;;;;;1.73;1.37;;;17.30;57.10;;;;;;5207733;28;20197;-65
2022/03/10 07:30:10;;;;;;;1.57;1.40;;;17.30;57.10;;;;;;5207382;28;20200;-64
2022/03/10 07:33:04;;;;;;;2.03;1.60;;;17.30;57.10;;;;;;5207620;28;20542;-64
2022/03/10 07:35:56;;;;;;;2.00;1.50;;;17.20;57.10;;;;;;5206880;28;20673;-64
2022/03/10 07:38:48;;;;;;;1.77;1.50;;;17.30;57.20;;;;;;5207465;28;20253;-65
2022/03/10 07:41:40;;;;;;;1.87;1.50;;;17.30;57.10;;;;;;5204480;28;20244;-65
2022/03/10 07:44:32;;;;;;;1.47;1.30;;;17.30;57.20;;;;;;5207625;28;20592;-65
2022/03/10 07:47:25;;;;;;;2.93;1.60;;;17.20;57.30;;;;;;5216175;28;20261;-65
2022/03/10 07:50:18;;;;;;;2.40;1.80;;;17.30;57.50;;;;;;5195101;28;20201;-65
2022/03/10 07:53:10;;;;;;;2.27;1.60;;;17.20;57.40;;;;;;5207089;28;20194;-65
2022/03/10 07:56:04;;;;;;;2.03;1.70;;;17.20;57.40;;;;;;5206314;28;20193;-65
2022/03/10 07:58:56;;;;;;;1.80;1.47;;;17.20;57.40;;;;;;5206582;28;20225;-65
2022/03/10 08:01:48;;;;;;;2.40;1.60;;;17.30;57.50;;;;;;5206931;28;20194;-65
2022/03/10 08:04:40;;;;;;;1.80;1.30;;;17.20;57.90;;;;;;5198249;28;20198;-65
2022/03/10 08:07:34;;;;;;;1.97;1.50;;;17.30;57.70;;;;;;5187258;28;20201;-65
2022/03/10 08:10:26;;;;;;;1.53;1.33;;;17.20;57.50;;;;;;5187154;28;20187;-65
2022/03/10 08:13:19;;;;;;;2.13;1.50;;;17.30;57.40;;;;;;5198051;28;20596;-65
2022/03/10 08:16:11;;;;;;;2.10;1.60;;;17.20;57.40;;;;;;5206274;28;20203;-65
2022/03/10 08:19:03;;;;;;;2.50;1.60;;;17.20;57.50;;;;;;5206206;28;20210;-65
2022/03/10 08:21:55;;;;;;;2.23;1.53;;;17.20;57.50;;;;;;5206060;28;20698;-65
2022/03/10 08:24:49;;;;;;;2.67;1.70;;;17.20;57.60;;;;;;5206652;28;20666;-65
2022/03/10 08:27:41;;;;;;;3.43;1.37;;;17.20;57.60;;;;;;5198769;28;20308;-65
2022/03/10 08:30:33;;;;;;;3.20;1.60;;;17.30;57.80;;;;;;5206374;28;20190;-64
2022/03/10 08:33:25;;;;;;;2.10;1.70;;;17.20;57.80;;;;;;5205879;28;20205;-65
2022/03/10 08:36:17;;;;;;;2.20;1.50;;;17.20;57.90;;;;;;5206157;28;20546;-64
2022/03/10 08:39:10;;;;;;;2.37;1.63;;;17.20;57.90;;;;;;5206976;28;20700;-65
2022/03/10 08:42:03;;;;;;;3.70;1.70;;;17.20;57.90;;;;;;5206227;28;20194;-65
2022/03/10 08:44:56;;;;;;;2.67;1.53;;;17.20;57.90;;;;;;5205778;28;20198;-65
2022/03/10 08:47:48;;;;;;;2.47;1.50;;;17.20;58.10;;;;;;5205800;28;20218;-64
2022/03/10 08:50:41;;;;;;;2.50;1.60;;;17.20;58.10;;;;;;5205868;28;20200;-65
2022/03/10 08:53:34;;;;;;;2.83;1.60;;;17.20;58.20;;;;;;5205517;28;20277;-65
2022/03/10 08:56:26;;;;;;;2.37;1.57;;;17.20;58.20;;;;;;5205439;28;20249;-65
2022/03/10 08:59:20;;;;;;;2.00;1.50;;;17.20;58.60;;;;;;5205775;28;20217;-64
2022/03/10 09:02:12;;;;;;;2.17;1.40;;;17.20;58.60;;;;;;5205628;28;20202;-64
2022/03/10 09:05:05;;;;;;;2.40;1.50;;;17.30;58.70;;;;;;5205829;28;20680;-64
2022/03/10 09:07:57;;;;;;;2.83;1.63;;;17.30;58.70;;;;;;5205053;28;20218;-64
2022/03/10 09:10:49;;;;;;;2.20;1.47;;;17.30;58.60;;;;;;5205053;28;20198;-64
2022/03/10 09:13:44;;;;;;;1.97;1.20;;;17.30;58.60;;;;;;5205611;28;20569;-64
2022/03/10 09:16:38;;;;;;;1.90;1.70;;;17.30;58.60;;;;;;5204437;28;20577;-64
2022/03/10 09:19:30;;;;;;;2.40;1.60;;;17.30;58.60;;;;;;5205774;28;20224;-65
2022/03/10 09:22:23;;;;;;;1.93;1.33;;;17.30;58.60;;;;;;5205435;28;20189;-65
2022/03/10 09:25:15;;;;;;;1.60;1.50;;;17.30;59.20;;;;;;5205375;28;20198;-64
2022/03/10 09:28:07;;;;;;;2.57;1.30;;;17.40;58.70;;;;;;5204826;28;20213;-64
2022/03/10 09:30:59;;;;;;;2.03;1.40;;;17.30;58.70;;;;;;5205506;28;20193;-64
2022/03/10 09:33:52;;;;;;;2.13;1.40;;;17.30;58.70;;;;;;5204978;28;20193;-64
2022/03/10 09:36:45;;;;;;;1.77;1.40;;;17.30;59.20;;;;;;5205519;28;20687;-63
2022/03/10 09:39:37;;;;;;;2.23;1.30;;;17.30;58.70;;;;;;5205044;28;20228;-64
2022/03/10 09:42:31;;;;;;;2.60;1.70;;;17.30;58.70;;;;;;5204404;28;20202;-64
2022/03/10 09:45:24;;;;;;;2.37;1.53;;;17.30;58.70;;;;;;5198894;28;20273;-64
2022/03/10 09:48:17;;;;;;;2.20;1.37;;;17.30;58.70;;;;;;5205131;28;20752;-64
2022/03/10 09:51:10;;;;;;;1.70;1.30;;;17.30;58.80;;;;;;5204834;28;20744;-63
2022/03/10 09:54:02;;;;;;;2.10;1.37;;;17.30;58.80;;;;;;5204795;28;20272;-63
2022/03/10 09:56:56;;;;;;;2.47;1.77;;;17.30;58.70;;;;;;5204107;28;20367;-63
2022/03/10 09:59:49;;;;;;;1.47;1.07;;;17.30;58.80;;;;;;5205014;28;20228;-63
2022/03/10 10:02:42;;;;;;;1.20;1.10;;;17.30;58.90;;;;;;5204802;28;20198;-63
2022/03/10 10:05:39;;;;;;;4.00;1.73;;;17.30;59.00;;;;;;5204775;28;20194;-63
2022/03/10 10:08:34;;;;;;;2.13;1.50;;;17.30;58.90;;;;;;5203926;28;20212;-63
2022/03/10 10:11:34;;;;;;;3.80;1.50;;;17.30;58.80;;;;;;5204702;28;20239;-63
2022/03/10 10:14:36;;;;;;;2.20;1.50;;;17.30;58.70;;;;;;5200170;28;20201;-63
2022/03/10 10:17:30;;;;;;;2.60;1.60;;;17.40;58.80;;;;;;5204910;28;20691;-63
2022/03/10 10:20:22;;;;;;;1.27;1.17;;;17.30;58.70;;;;;;5204834;28;20811;-64
2022/03/10 10:23:19;;;;;;;2.30;1.60;;;17.30;58.70;;;;;;5184185;28;20190;-68
2022/03/10 10:26:14;;;;;;;1.90;1.30;;;17.30;58.70;;;;;;5184499;28;20194;-64
2022/03/10 10:29:06;;;;;;;1.53;1.07;;;17.30;58.70;;;;;;5184339;28;20692;-63
2022/03/10 10:31:58;;;;;;;1.63;1.27;;;17.40;58.80;;;;;;5184002;28;20190;-64
2022/03/10 10:34:59;;;;;;;1.30;1.00;;;17.40;58.80;;;;;;5193462;28;20190;-64
2022/03/10 10:37:54;;;;;;;2.10;1.33;;;17.40;58.70;;;;;;5205228;28;20700;-64
2022/03/10 10:40:46;;;;;;;1.10;1.00;;;17.40;58.70;;;;;;5204008;28;20604;-64
2022/03/10 10:43:42;;;;;;;1.50;1.10;;;17.30;58.60;;;;;;5203791;28;20202;-65
2022/03/10 10:46:37;;;;;;;2.30;1.53;;;17.30;58.70;;;;;;5204055;28;20197;-63
2022/03/10 10:49:35;;;;;;;1.83;1.10;;;17.40;58.80;;;;;;5203857;28;20229;-64
2022/03/10 10:52:37;;;;;;;1.77;1.33;;;17.40;59.00;;;;;;5204255;28;20197;-64
2022/03/10 10:55:34;;;;;;;1.27;1.17;;;17.40;58.80;;;;;;5204134;28;20683;-63
2022/03/10 10:58:27;;;;;;;2.00;1.03;;;17.40;58.80;;;;;;5204109;28;20704;-63
2022/03/10 11:01:32;;;;;;;2.97;1.50;;;17.40;58.70;;;;;;5204206;28;20214;-64
2022/03/10 11:04:26;;;;;;;1.30;1.10;;;17.40;58.70;;;;;;5204811;28;20194;-63
2022/03/10 11:07:19;;;;;;;1.77;1.40;;;17.30;58.60;;;;;;5204901;28;20669;-63
2022/03/10 11:10:12;;;;;;;1.50;1.00;;;17.30;58.70;;;;;;5204030;28;20201;-64
2022/03/10 11:13:05;;;;;;;1.13;1.03;;;17.40;58.60;;;;;;5202865;28;20201;-63
2022/03/10 11:15:58;;;;;;;1.17;1.00;;;17.30;58.50;;;;;;5203972;28;20202;-63
2022/03/10 11:18:53;;;;;;;2.53;1.37;;;17.30;58.50;;;;;;5204009;28;20218;-63
2022/03/10 11:22:04;;;;;;;1.00;0.90;;;17.30;59.40;;;;;;5203937;28;20190;-63
2022/03/10 11:25:17;;;;;;;1.53;1.30;;;17.30;58.60;;;;;;5203084;28;20281;-63
2022/03/10 11:28:13;;;;;;;1.90;1.00;;;17.30;58.60;;;;;;5203882;28;20581;-64
2022/03/10 11:31:07;;;;;;;1.40;1.30;;;17.30;58.70;;;;;;5203807;28;20186;-63
2022/03/10 11:34:01;;;;;;;1.57;1.10;;;17.30;58.70;;;;;;5203801;28;20237;-63
2022/03/10 11:36:53;;;;;;;1.23;0.90;;;17.30;58.70;;;;;;5203573;28;20202;-63
2022/03/10 11:39:55;;;;;;;1.20;1.03;;;17.30;58.70;;;;;;5206198;28;20222;-66
2022/03/10 11:42:47;;;;;;;1.37;1.13;;;17.30;58.80;;;;;;5207894;28;20205;-65
2022/03/10 11:45:40;;;;;;;1.93;1.10;;;17.30;59.10;;;;;;5206968;28;20296;-65
2022/03/10 11:48:39;;;;;;;1.20;1.10;;;17.30;59.30;;;;;;5206021;28;20597;-66
2022/03/10 11:51:47;;;;;;;1.60;1.07;;;17.30;59.20;;;;;;5206877;28;20194;-65
2022/03/10 11:54:41;;;;;;;1.70;1.10;;;17.40;59.30;;;;;;5205541;28;20190;-65
2022/03/10 11:57:42;;;;;;;1.23;0.93;;;17.40;59.30;;;;;;5207108;28;20228;-65
2022/03/10 12:00:49;;;;;;;1.50;1.10;;;17.40;59.30;;;;;;5204898;28;20255;-66
2022/03/10 12:03:47;;;;;;;1.30;1.00;;;17.40;59.20;;;;;;5206968;28;20193;-65
2022/03/10 12:06:50;;;;;;;1.00;0.90;;;17.40;59.10;;;;;;5204449;28;20265;-66
2022/03/10 12:09:42;;;;;;;1.33;1.10;;;17.40;59.10;;;;;;5205539;28;20584;-65
2022/03/10 12:12:39;;;;;;;1.20;1.03;;;17.40;59.10;;;;;;5205054;28;20194;-66
2022/03/10 12:15:41;;;;;;;0.73;0.73;;;17.40;59.00;;;;;;5205776;28;20321;-66
2022/03/10 12:18:43;;;;;;;1.90;1.00;;;17.40;59.00;;;;;;5240755;22;20724;-67
2022/03/10 12:21:35;;;;;;;1.10;0.97;;;17.50;59.10;;;;;;5214352;28;20227;-68
2022/03/10 12:24:36;;;;;;;1.27;1.00;;;17.50;58.90;;;;;;5222481;28;20264;-68
2022/03/10 12:27:28;;;;;;;1.93;1.20;;;17.50;58.90;;;;;;5217091;28;20201;-68
2022/03/10 12:30:21;;;;;;;1.10;0.90;;;17.50;58.90;;;;;;5224942;28;20674;-68
2022/03/10 12:33:14;;;;;;;1.33;0.93;;;17.50;58.90;;;;;;5225504;28;20197;-67
2022/03/10 12:36:06;;;;;;;2.77;1.10;;;17.50;59.00;;;;;;5224735;28;20211;-68
2022/03/10 12:39:01;;;;;;;0.67;0.67;;;17.50;59.00;;;;;;5224636;28;20819;-67
2022/03/10 12:42:01;;;;;;;1.10;1.00;;;17.50;59.00;;;;;;5223716;28;20217;-67
2022/03/10 12:44:54;;;;;;;1.10;0.97;;;17.50;59.10;;;;;;5224747;28;20542;-67
2022/03/10 12:47:54;;;;;;;1.30;1.20;;;17.50;59.10;;;;;;5224639;28;20704;-68
2022/03/10 12:50:46;;;;;;;2.53;1.00;;;17.50;59.20;;;;;;5224373;28;20596;-67
2022/03/10 12:53:40;;;;;;;1.00;0.90;;;17.50;59.20;;;;;;5223969;28;20205;-68
2022/03/10 12:56:44;;;;;;;0.60;0.60;;;17.50;59.20;;;;;;5224221;28;20676;-67
2022/03/10 12:59:40;;;;;;;1.03;0.93;;;17.50;59.20;;;;;;5224228;28;20703;-67
2022/03/10 13:02:38;;;;;;;1.23;1.10;;;17.50;59.20;;;;;;5222194;28;20208;-67
2022/03/10 13:05:31;;;;;;;0.97;0.83;;;17.50;59.30;;;;;;5223327;28;20671;-67
2022/03/10 13:08:23;;;;;;;1.57;1.00;;;17.50;59.30;;;;;;5223415;28;20596;-67
2022/03/10 13:11:19;;;;;;;0.73;0.60;;;17.50;59.30;;;;;;5215298;28;20776;-67
2022/03/10 13:14:13;;;;;;;0.70;0.60;;;17.50;59.30;;;;;;5214709;28;20193;-67
2022/03/10 13:17:07;;;;;;;1.30;0.90;;;17.50;59.40;;;;;;5203089;28;20201;-67
2022/03/10 13:19:59;;;;;;;1.53;1.00;;;17.50;59.40;;;;;;5202471;28;20768;-67
2022/03/10 13:22:53;;;;;;;1.07;0.83;;;17.50;59.40;;;;;;5217318;28;20194;-67
2022/03/10 13:25:45;;;;;;;1.57;0.80;;;17.50;59.40;;;;;;5223523;28;20201;-66
2022/03/10 13:28:37;;;;;;;1.37;0.80;;;17.50;59.40;;;;;;5223729;28;20655;-67
2022/03/10 13:31:30;;;;;;;1.20;1.00;;;17.50;59.40;;;;;;5222906;28;20244;-67
2022/03/10 13:34:24;;;;;;;1.50;0.80;;;17.50;59.40;;;;;;5223411;28;20771;-67
2022/03/10 13:37:18;;;;;;;2.10;1.07;;;17.50;59.40;;;;;;5222604;28;20756;-67
2022/03/10 13:40:14;;;;;;;1.40;1.00;;;17.50;59.40;;;;;;5216101;28;20695;-67
2022/03/10 13:43:08;;;;;;;1.03;0.70;;;17.50;59.40;;;;;;5222695;28;20201;-67
2022/03/10 13:46:11;;;;;;;0.90;0.80;;;17.50;59.40;;;;;;5224243;28;20659;-67
2022/03/10 13:49:19;;;;;;;0.90;0.90;;;17.50;59.40;;;;;;5223619;28;20303;-67
2022/03/10 13:52:14;;;;;;;1.27;1.00;;;17.50;59.50;;;;;;5205185;28;20774;-67
2022/03/10 13:55:11;;;;;;;0.90;0.70;;;17.60;59.50;;;;;;5221900;28;20204;-67
2022/03/10 13:58:06;;;;;;;0.67;0.67;;;17.50;59.50;;;;;;5225869;28;20615;-68
2022/03/10 14:01:04;;;;;;;1.00;0.80;;;17.50;59.60;;;;;;5226065;28;20721;-69
2022/03/10 14:03:57;;;;;;;0.80;0.70;;;17.50;59.50;;;;;;5225799;28;20201;-69
2022/03/10 14:06:50;;;;;;;1.43;0.70;;;17.50;59.50;;;;;;5225757;28;20201;-68
2022/03/10 14:09:44;;;;;;;3.47;0.87;;;17.60;59.50;;;;;;5225535;28;20223;-68
2022/03/10 14:12:36;;;;;;;0.80;0.80;;;17.60;59.50;;;;;;5225422;28;20250;-69
2022/03/10 14:15:34;;;;;;;0.83;0.80;;;17.60;59.40;;;;;;5205069;28;20200;-69
2022/03/10 14:18:27;;;;;;;0.90;0.70;;;17.60;59.40;;;;;;5204460;28;20213;-69
2022/03/10 14:21:20;;;;;;;0.90;0.90;;;17.60;59.40;;;;;;5204267;28;20233;-69
2022/03/10 14:24:12;;;;;;;0.90;0.73;;;17.60;59.40;;;;;;5220417;28;20197;-69
2022/03/10 14:27:11;;;;;;;1.83;0.80;;;17.60;59.30;;;;;;5225512;28;20205;-69
2022/03/10 14:30:04;;;;;;;0.80;0.80;;;17.60;59.30;;;;;;5224481;28;20213;-68
2022/03/10 14:32:56;;;;;;;1.83;1.03;;;17.60;59.30;;;;;;5225056;28;20208;-68
2022/03/10 14:35:48;;;;;;;1.90;0.87;;;17.60;59.30;;;;;;5224863;28;20197;-68
2022/03/10 14:38:41;;;;;;;0.93;0.60;;;17.60;59.30;;;;;;5225607;28;20216;-68
2022/03/10 14:41:34;;;;;;;1.00;0.70;;;17.60;59.20;;;;;;5224490;28;20343;-68
2022/03/10 14:44:27;;;;;;;1.47;0.77;;;17.60;59.50;;;;;;5225120;28;20205;-69
2022/03/10 14:47:19;;;;;;;0.90;0.70;;;17.60;59.20;;;;;;5224366;28;20262;-69
2022/03/10 14:50:11;;;;;;;0.93;0.70;;;17.60;59.20;;;;;;5223858;28;20219;-69
2022/03/10 14:53:04;;;;;;;0.70;0.70;;;17.60;59.20;;;;;;5224827;28;20246;-69
2022/03/10 14:55:56;;;;;;;1.37;0.77;;;17.60;59.20;;;;;;5225340;28;20276;-68
2022/03/10 14:58:49;;;;;;;0.90;0.80;;;17.60;59.20;;;;;;5224596;28;20225;-68
2022/03/10 15:01:43;;;;;;;1.17;0.80;;;17.60;59.20;;;;;;5224400;28;20626;-67
2022/03/10 15:04:35;;;;;;;1.00;0.80;;;17.60;59.20;;;;;;5225116;28;20711;-68
2022/03/10 15:07:27;;;;;;;0.97;0.87;;;17.60;59.10;;;;;;5224406;28;20571;-70